Pagrindinis puslapis
METAR-TAF:

METAR-TAF

Oro uostai :

Tajima, Japonija

platuma: 35-31N, ilguma: 134-48E, Aukštis: 210 m

Dabartinis oras

Ataskaita buvo paskelbta 4 valandos ir 50 minutes, ne 09:00 UTC
Vėjas 2 kt nuo kintamojo kryptimis
Temperatūra 6°C
Drėgmė 87%
Slėgis 1022 hPa
Matomumas 10 km arba daugiau
Mažai debesys ne aukštis 2000 ft
Su prošvaistėmis ne aukštis 5000 ft

METAR: RJBT 070900Z VRB02KT 9999 FEW020 BKN050 06/04 Q1022

Laikas: 22:50 (13:50 UTC)


TAF: trūkstamas

Orai ataskaitas ir orų prognozės (METAR, TAF).

turimą stotys yra geltonos ir raudonos taškus žemėlapyje.

Perkelti pele per norėdami pamatyti stoties vardą.

Tada spustelėkite, norėdami matyti oro stebėjimo ir prognozės.

Norėdami pakeisti žemėlapį: spustelėkite ant žalios mygtukų su juodo kryžiaus žemyn,; žalią mygtuką su brūkšneliu, jei norite nutolinti; arba žalių rodyklių gretimoms žemėlapius.


METAR-TAF: